Time;durP1;ratioP1;P1;durP2;ratioP2;P2;SDS_P1;SDS_P2;PMS_P1;PMS_P2;Temp;Humidity;BMP_temperature;BMP_pressure;BME280_temperature;BME280_humidity;BME280_pressure;Samples;Min_cycle;Max_cycle;Signal;HPM_P1;HPM_P2
2022/05/14 00:00:41;;;;;;;;;;;12.20;99.90;;;;;;5151010;27;19963;-60
2022/05/14 00:03:07;;;;;;;;;;;12.20;99.90;;;;;;5154854;27;19976;-60
2022/05/14 00:05:32;;;;;;;;;;;12.20;99.90;;;;;;5154796;27;19966;-60
2022/05/14 00:07:58;;;;;;;;;;;12.20;99.90;;;;;;5153829;27;19919;-60
2022/05/14 00:10:25;;;;;;;;;;;12.10;99.90;;;;;;5136378;27;19944;-60
2022/05/14 00:13:04;;;;;;;;;;;12.10;99.90;;;;;;5154225;27;19919;-60
2022/05/14 00:15:31;;;;;;;;;;;12.50;99.90;;;;;;5154693;27;19923;-59
2022/05/14 00:17:57;;;;;;;;;;;12.00;99.90;;;;;;5154148;27;20273;-59
2022/05/14 00:20:23;;;;;;;;;;;12.00;99.90;;;;;;5154052;27;19924;-59
2022/05/14 00:22:52;;;;;;;;;;;11.90;99.90;;;;;;5154552;27;19923;-60
2022/05/14 00:25:19;;;;;;;;;;;11.90;99.90;;;;;;5152778;27;19930;-59
2022/05/14 00:27:45;;;;;;;;;;;11.80;99.90;;;;;;5152719;27;19923;-59
2022/05/14 00:30:13;;;;;;;;;;;11.90;99.90;;;;;;5154322;27;19923;-59
2022/05/14 00:32:40;;;;;;;;;;;11.70;99.90;;;;;;5153761;27;19923;-60
2022/05/14 00:35:07;;;;;;;;;;;11.60;99.90;;;;;;5150394;27;20017;-60
2022/05/14 00:37:34;;;;;;;;;;;11.60;99.90;;;;;;5154255;27;20297;-59
2022/05/14 00:40:01;;;;;;;;;;;11.60;99.90;;;;;;5153641;27;19923;-59
2022/05/14 00:42:27;;;;;;;;;;;11.60;99.90;;;;;;5134470;27;19935;-60
2022/05/14 00:44:53;;;;;;;;;;;11.60;99.90;;;;;;5151452;27;19923;-60
2022/05/14 00:47:18;;;;;;;;;;;11.40;99.90;;;;;;5134954;27;19948;-59
2022/05/14 00:49:45;;;;;;;;;;;11.40;99.90;;;;;;5156875;27;19923;-59
2022/05/14 00:52:12;;;;;;;;;;;11.30;99.90;;;;;;5155810;27;19923;-60
2022/05/14 00:54:43;;;;;;;;;;;11.30;99.90;;;;;;5158271;27;19923;-60
2022/05/14 00:57:11;;;;;;;;;;;11.30;99.90;;;;;;5139047;27;20297;-59
2022/05/14 00:59:37;;;;;;;;;;;11.30;99.90;;;;;;5139679;27;20312;-60
2022/05/14 01:02:05;;;;;;;;;;;11.30;99.90;;;;;;5156994;27;19919;-59
2022/05/14 01:04:30;;;;;;;;;;;11.60;99.90;;;;;;5158574;27;19945;-60
2022/05/14 01:07:06;;;;;;;;;;;11.40;99.90;;;;;;5139329;27;20373;-59
2022/05/14 01:09:33;;;;;;;;;;;11.40;99.90;;;;;;5134672;27;19930;-59
2022/05/14 01:11:59;;;;;;;;;;;11.40;99.90;;;;;;5139608;27;20411;-59
2022/05/14 01:14:25;;;;;;;;;;;11.40;99.90;;;;;;5139784;27;19923;-59
2022/05/14 01:16:55;;;;;;;;;;;11.40;99.90;;;;;;5138194;27;19927;-59
2022/05/14 01:19:22;;;;;;;;;;;11.50;99.90;;;;;;5150759;27;19923;-59
2022/05/14 01:21:52;;;;;;;;;;;11.40;99.90;;;;;;5139438;27;20433;-59
2022/05/14 01:27:11;;;;;;;;;;;11.40;99.90;;;;;;5138684;27;19931;-59
2022/05/14 01:29:38;;;;;;;;;;;11.30;99.90;;;;;;5157664;27;19923;-59
2022/05/14 01:32:08;;;;;;;;;;;11.30;99.90;;;;;;5121010;27;19923;-59
2022/05/14 01:34:34;;;;;;;;;;;11.30;99.90;;;;;;5139096;27;19923;-60
2022/05/14 01:37:01;;;;;;;;;;;11.30;99.90;;;;;;5124374;27;20388;-59
2022/05/14 01:39:27;;;;;;;;;;;11.30;99.90;;;;;;5135551;27;19977;-60
2022/05/14 01:41:53;;;;;;;;;;;11.30;99.90;;;;;;5136988;27;19919;-60
2022/05/14 01:44:20;;;;;;;;;;;11.30;99.90;;;;;;5136712;27;19969;-59
2022/05/14 01:46:46;;;;;;;;;;;11.30;99.90;;;;;;5138730;27;19927;-60
2022/05/14 01:49:12;;;;;;;;;;;11.20;99.90;;;;;;5121650;27;19923;-59
2022/05/14 01:51:38;;;;;;;;;;;11.30;99.90;;;;;;5138393;27;20369;-60
2022/05/14 01:54:07;;;;;;;;;;;11.60;99.90;;;;;;5137857;27;20007;-60
2022/05/14 01:56:33;;;;;;;;;;;11.30;99.90;;;;;;5138927;27;20381;-60
2022/05/14 01:58:58;;;;;;;;;;;11.30;99.90;;;;;;5137878;27;19959;-60
2022/05/14 02:01:26;;;;;;;;;;;11.30;99.90;;;;;;5138528;27;19953;-59
2022/05/14 02:03:54;;;;;;;;;;;11.30;99.90;;;;;;5138538;27;20314;-59
2022/05/14 02:06:20;;;;;;;;;;;11.40;99.90;;;;;;5137792;27;20269;-59
2022/05/14 02:08:47;;;;;;;;;;;11.40;99.90;;;;;;5120904;27;19934;-59
2022/05/14 02:11:14;;;;;;;;;;;11.50;99.90;;;;;;5137988;27;19923;-59
2022/05/14 02:13:42;;;;;;;;;;;11.90;99.90;;;;;;5137561;27;19975;-59
2022/05/14 02:16:08;;;;;;;;;;;11.50;99.90;;;;;;5137901;27;19923;-59
2022/05/14 02:18:35;;;;;;;;;;;11.50;99.90;;;;;;5138438;27;19923;-59
2022/05/14 02:21:00;;;;;;;;;;;11.40;99.90;;;;;;5136913;27;19923;-59
2022/05/14 02:23:26;;;;;;;;;;;11.40;99.90;;;;;;5138188;27;19979;-60
2022/05/14 02:25:52;;;;;;;;;;;11.30;99.90;;;;;;5135628;27;20400;-59
2022/05/14 02:28:18;;;;;;;;;;;11.30;99.90;;;;;;5123601;27;19923;-59
2022/05/14 02:30:44;;;;;;;;;;;11.20;99.90;;;;;;5137437;27;19930;-59
2022/05/14 02:33:10;;;;;;;;;;;11.20;99.90;;;;;;5156782;27;19923;-59
2022/05/14 02:35:36;;;;;;;;;;;11.10;99.90;;;;;;5139159;27;19927;-59
2022/05/14 02:38:03;;;;;;;;;;;11.10;99.90;;;;;;5123452;27;19923;-60
2022/05/14 02:40:29;;;;;;;;;;;11.00;99.90;;;;;;5137425;27;19923;-59
2022/05/14 02:42:55;;;;;;;;;;;11.00;99.90;;;;;;5137981;27;19976;-59
2022/05/14 02:45:21;;;;;;;;;;;10.90;99.90;;;;;;5156122;27;19927;-59
2022/05/14 02:47:47;;;;;;;;;;;10.90;99.90;;;;;;5119359;27;19923;-60
2022/05/14 02:50:13;;;;;;;;;;;10.90;99.90;;;;;;5137482;27;19923;-59
2022/05/14 02:52:39;;;;;;;;;;;11.00;99.90;;;;;;5155912;27;19988;-59
2022/05/14 02:55:06;;;;;;;;;;;10.90;99.90;;;;;;5154707;27;19970;-60
2022/05/14 02:57:32;;;;;;;;;;;10.90;99.90;;;;;;5156091;27;20365;-59
2022/05/14 02:59:57;;;;;;;;;;;10.90;99.90;;;;;;5137135;27;19930;-60
2022/05/14 03:02:23;;;;;;;;;;;10.90;99.90;;;;;;5155439;27;19920;-59
2022/05/14 03:04:49;;;;;;;;;;;10.80;99.90;;;;;;5155655;27;19923;-59
2022/05/14 03:07:16;;;;;;;;;;;10.80;99.90;;;;;;5136868;27;20303;-59
2022/05/14 03:09:42;;;;;;;;;;;10.80;99.90;;;;;;5155324;27;19919;-59
2022/05/14 03:12:10;;;;;;;;;;;10.80;99.90;;;;;;5119422;27;19929;-60
2022/05/14 03:14:36;;;;;;;;;;;10.70;99.90;;;;;;5154977;27;20402;-59
2022/05/14 03:17:02;;;;;;;;;;;10.70;99.90;;;;;;5136030;27;20074;-59
2022/05/14 03:19:28;;;;;;;;;;;10.60;99.90;;;;;;5136889;27;20392;-59
2022/05/14 03:21:54;;;;;;;;;;;10.70;99.90;;;;;;5155126;27;19927;-59
2022/05/14 03:24:19;;;;;;;;;;;10.60;99.90;;;;;;5154915;27;19922;-59
2022/05/14 03:26:45;;;;;;;;;;;10.50;99.90;;;;;;5145399;27;20339;-59
2022/05/14 03:29:12;;;;;;;;;;;10.50;99.90;;;;;;5148843;27;19923;-59
2022/05/14 03:31:38;;;;;;;;;;;10.40;99.90;;;;;;5154447;27;19975;-60
2022/05/14 03:34:04;;;;;;;;;;;10.30;99.90;;;;;;5133476;27;19923;-60
2022/05/14 03:36:30;;;;;;;;;;;10.30;99.90;;;;;;5115726;27;19958;-59
2022/05/14 03:38:56;;;;;;;;;;;10.30;99.90;;;;;;5115466;27;19927;-59
2022/05/14 03:41:22;;;;;;;;;;;10.30;99.90;;;;;;5134089;27;20377;-59
2022/05/14 03:43:48;;;;;;;;;;;10.30;99.90;;;;;;5135691;27;20392;-59
2022/05/14 03:46:14;;;;;;;;;;;10.20;99.90;;;;;;5136373;27;20274;-59
2022/05/14 03:48:40;;;;;;;;;;;10.10;99.90;;;;;;5136558;27;19923;-59
2022/05/14 03:51:06;;;;;;;;;;;10.10;99.90;;;;;;5118981;27;19952;-59
2022/05/14 03:53:32;;;;;;;;;;;10.30;99.90;;;;;;5136170;27;19923;-59
2022/05/14 03:55:58;;;;;;;;;;;10.00;99.90;;;;;;5155127;27;19930;-59
2022/05/14 03:58:24;;;;;;;;;;;9.90;99.90;;;;;;5135406;27;19923;-59
2022/05/14 04:00:50;;;;;;;;;;;10.00;99.90;;;;;;5154683;27;20380;-59
2022/05/14 04:03:16;;;;;;;;;;;10.10;99.90;;;;;;5136737;27;19934;-59
2022/05/14 04:05:42;;;;;;;;;;;10.30;99.90;;;;;;5135960;27;19923;-59
2022/05/14 04:08:07;;;;;;;;;;;10.20;99.90;;;;;;5154344;27;19929;-59
2022/05/14 04:10:33;;;;;;;;;;;10.30;99.90;;;;;;5136530;27;19931;-59
2022/05/14 04:12:59;;;;;;;;;;;10.30;99.90;;;;;;5118654;27;20403;-59
2022/05/14 04:15:27;;;;;;;;;;;10.40;99.90;;;;;;5118137;27;20396;-59
2022/05/14 04:17:53;;;;;;;;;;;10.40;99.90;;;;;;5136003;27;19931;-59
2022/05/14 04:20:19;;;;;;;;;;;10.40;99.90;;;;;;5154024;27;19923;-59
2022/05/14 04:22:46;;;;;;;;;;;10.50;99.90;;;;;;5154672;27;19931;-59
2022/05/14 04:25:12;;;;;;;;;;;10.70;99.90;;;;;;5144247;27;20365;-59
2022/05/14 04:27:41;;;;;;;;;;;10.50;99.90;;;;;;5155050;27;19923;-59
2022/05/14 04:30:08;;;;;;;;;;;10.50;99.90;;;;;;5140212;27;19976;-59
2022/05/14 04:32:34;;;;;;;;;;;10.50;99.90;;;;;;5122705;27;19934;-59
2022/05/14 04:35:00;;;;;;;;;;;10.60;99.90;;;;;;5128305;27;20410;-59
2022/05/14 04:37:26;;;;;;;;;;;10.60;99.90;;;;;;5119352;27;20297;-59
2022/05/14 04:39:53;;;;;;;;;;;10.60;99.90;;;;;;5119896;27;19923;-59
2022/05/14 04:42:19;;;;;;;;;;;10.60;99.90;;;;;;5119069;27;19919;-59
2022/05/14 04:44:45;;;;;;;;;;;10.60;99.90;;;;;;5125310;27;20441;-59
2022/05/14 04:47:12;;;;;;;;;;;10.80;99.90;;;;;;5139251;27;19972;-59
2022/05/14 04:49:39;;;;;;;;;;;10.80;99.90;;;;;;5157328;27;20508;-59
2022/05/14 04:52:04;;;;;;;;;;;10.80;99.90;;;;;;5150116;27;20450;-59
2022/05/14 04:54:30;;;;;;;;;;;10.90;99.90;;;;;;5137277;27;19971;-59
2022/05/14 04:56:56;;;;;;;;;;;10.90;99.90;;;;;;5119131;27;19953;-59
2022/05/14 04:59:21;;;;;;;;;;;11.00;99.90;;;;;;5122983;27;19950;-59
2022/05/14 05:04:32;;;;;;;;;;;11.20;99.90;;;;;;5158381;27;19929;-59
2022/05/14 05:06:58;;;;;;;;;;;11.20;99.90;;;;;;5158031;27;19919;-59
2022/05/14 05:09:24;;;;;;;;;;;11.30;99.90;;;;;;5157123;27;20437;-59
2022/05/14 05:11:50;;;;;;;;;;;11.50;99.90;;;;;;5158006;27;20323;-59
2022/05/14 05:14:16;;;;;;;;;;;11.50;99.90;;;;;;5157917;27;19968;-59
2022/05/14 05:16:42;;;;;;;;;;;11.60;99.90;;;;;;5156759;27;19923;-59
2022/05/14 05:19:08;;;;;;;;;;;11.70;99.90;;;;;;5158075;27;19923;-60
2022/05/14 05:21:34;;;;;;;;;;;11.80;99.90;;;;;;5157509;27;19924;-60
2022/05/14 05:24:01;;;;;;;;;;;11.90;99.90;;;;;;5157188;27;19957;-60
2022/05/14 05:26:27;;;;;;;;;;;12.00;99.90;;;;;;5149750;27;19978;-60
2022/05/14 05:28:53;;;;;;;;;;;12.10;99.90;;;;;;5148607;27;19923;-60
2022/05/14 05:31:19;;;;;;;;;;;12.30;99.90;;;;;;5157203;27;19927;-60
2022/05/14 05:33:45;;;;;;;;;;;12.40;99.90;;;;;;5157140;27;19930;-60
2022/05/14 05:36:10;;;;;;;;;;;12.50;99.90;;;;;;5156560;27;19931;-60
2022/05/14 05:38:37;;;;;;;;;;;12.70;99.90;;;;;;5156426;27;19924;-60
2022/05/14 05:41:03;;;;;;;;;;;12.80;99.90;;;;;;5156850;27;19943;-60
2022/05/14 05:43:30;;;;;;;;;;;12.90;99.90;;;;;;5134154;27;20012;-60
2022/05/14 05:45:56;;;;;;;;;;;13.00;99.90;;;;;;5157070;27;19976;-60
2022/05/14 05:48:22;;;;;;;;;;;13.20;99.90;;;;;;5157179;27;19923;-60
2022/05/14 05:50:48;;;;;;;;;;;13.10;99.90;;;;;;5155622;27;19923;-60
2022/05/14 05:53:14;;;;;;;;;;;13.20;99.90;;;;;;5135117;27;19931;-57
2022/05/14 05:58:33;;;;;;;;;;;13.20;99.90;;;;;;5137494;27;20048;-58
2022/05/14 06:00:59;;;;;;;;;;;13.20;99.90;;;;;;5156944;27;20002;-58
2022/05/14 06:03:24;;;;;;;;;;;13.20;99.90;;;;;;5157282;27;20021;-58
2022/05/14 06:05:50;;;;;;;;;;;13.20;99.90;;;;;;5156001;27;19923;-58
2022/05/14 06:08:16;;;;;;;;;;;13.30;99.90;;;;;;5157231;27;19923;-58
2022/05/14 06:10:42;;;;;;;;;;;13.40;99.90;;;;;;5128765;27;19975;-58
2022/05/14 06:13:09;;;;;;;;;;;13.50;99.90;;;;;;5135263;27;20072;-58
2022/05/14 06:15:35;;;;;;;;;;;13.70;99.90;;;;;;5136033;27;19931;-58
2022/05/14 06:18:02;;;;;;;;;;;13.80;99.90;;;;;;5144648;27;19923;-58
2022/05/14 06:20:28;;;;;;;;;;;13.90;99.90;;;;;;5138166;27;19927;-58
2022/05/14 06:22:54;;;;;;;;;;;14.00;99.90;;;;;;5135970;27;19923;-58
2022/05/14 06:25:20;;;;;;;;;;;14.10;99.90;;;;;;5156434;27;19992;-58
2022/05/14 06:27:45;;;;;;;;;;;14.30;99.90;;;;;;5153116;27;19995;-58
2022/05/14 06:30:11;;;;;;;;;;;14.40;99.90;;;;;;5156524;27;19930;-58
2022/05/14 06:32:37;;;;;;;;;;;14.40;99.90;;;;;;5155392;27;19975;-58
2022/05/14 06:35:05;;;;;;;;;;;14.40;99.90;;;;;;5154783;27;19923;-58
2022/05/14 06:37:31;;;;;;;;;;;14.50;99.90;;;;;;5152978;27;19923;-58
2022/05/14 06:39:56;;;;;;;;;;;14.30;99.90;;;;;;5155425;27;19923;-58
2022/05/14 06:42:22;;;;;;;;;;;14.20;99.90;;;;;;5156196;27;19975;-58
2022/05/14 06:44:48;;;;;;;;;;;14.20;99.90;;;;;;5119940;27;19923;-58
2022/05/14 06:47:13;;;;;;;;;;;14.10;99.90;;;;;;5146547;27;19923;-58
2022/05/14 06:49:39;;;;;;;;;;;14.20;99.90;;;;;;5155427;27;19930;-58
2022/05/14 06:52:05;;;;;;;;;;;14.20;99.90;;;;;;5156167;27;19934;-58
2022/05/14 06:54:31;;;;;;;;;;;14.30;99.90;;;;;;5153442;27;19923;-58
2022/05/14 06:56:57;;;;;;;;;;;14.30;99.90;;;;;;5155558;27;19976;-58
2022/05/14 06:59:23;;;;;;;;;;;14.30;99.90;;;;;;5155824;27;19958;-58
2022/05/14 07:01:48;;;;;;;;;;;14.40;99.90;;;;;;5155504;27;20400;-58
2022/05/14 07:07:00;;;;;;;;;;;14.60;99.90;;;;;;5135044;27;19923;-58
2022/05/14 07:09:27;;;;;;;;;;;14.80;99.90;;;;;;5134402;27;19950;-58
2022/05/14 07:11:54;;;;;;;;;;;14.80;99.90;;;;;;5137648;27;20068;-58
2022/05/14 07:14:20;;;;;;;;;;;14.90;99.90;;;;;;5155411;27;20006;-58
2022/05/14 07:16:47;;;;;;;;;;;14.90;99.90;;;;;;5132472;27;20084;-58
2022/05/14 07:19:13;;;;;;;;;;;14.90;99.90;;;;;;5116793;27;20390;-58
2022/05/14 07:21:40;;;;;;;;;;;14.80;99.90;;;;;;5124528;27;19927;-58
2022/05/14 07:24:07;;;;;;;;;;;14.80;99.90;;;;;;5134156;27;19951;-58
2022/05/14 07:26:34;;;;;;;;;;;14.90;99.90;;;;;;5124907;27;19939;-58
2022/05/14 07:29:00;;;;;;;;;;;15.00;99.90;;;;;;5125834;27;20404;-58
2022/05/14 07:31:26;;;;;;;;;;;15.10;99.90;;;;;;5134411;27;19953;-58
2022/05/14 07:33:52;;;;;;;;;;;15.20;99.90;;;;;;5132873;27;20367;-58
2022/05/14 07:36:20;;;;;;;;;;;15.20;99.90;;;;;;5113506;28;20411;-58
2022/05/14 07:38:46;;;;;;;;;;;15.20;99.90;;;;;;5119691;27;19979;-58
2022/05/14 07:41:12;;;;;;;;;;;15.40;99.90;;;;;;5134031;27;20396;-58
2022/05/14 07:43:39;;;;;;;;;;;15.40;99.90;;;;;;5132811;27;19927;-58
2022/05/14 07:46:07;;;;;;;;;;;15.50;99.90;;;;;;5134487;27;19920;-58
2022/05/14 07:48:35;;;;;;;;;;;15.60;99.90;;;;;;5133704;27;20356;-58
2022/05/14 07:51:02;;;;;;;;;;;15.70;99.90;;;;;;5133863;27;20338;-58
2022/05/14 07:53:30;;;;;;;;;;;15.70;99.90;;;;;;5129633;27;20587;-58
2022/05/14 07:55:57;;;;;;;;;;;15.70;99.90;;;;;;5130674;27;20437;-58
2022/05/14 07:58:24;;;;;;;;;;;15.90;99.90;;;;;;5127649;27;19930;-58
2022/05/14 08:00:50;;;;;;;;;;;15.80;99.90;;;;;;5133692;27;19930;-58
2022/05/14 08:03:16;;;;;;;;;;;15.80;99.90;;;;;;5133987;27;20325;-58
2022/05/14 08:05:41;;;;;;;;;;;15.80;99.90;;;;;;5123282;27;19946;-58
2022/05/14 08:08:08;;;;;;;;;;;16.30;99.90;;;;;;5112194;28;19931;-58
2022/05/14 08:10:34;;;;;;;;;;;16.00;99.90;;;;;;5118324;28;19930;-58
2022/05/14 08:13:00;;;;;;;;;;;16.30;99.90;;;;;;5132956;28;19946;-58
2022/05/14 08:15:26;;;;;;;;;;;16.40;99.90;;;;;;5132567;27;20022;-59
2022/05/14 08:17:52;;;;;;;;;;;16.50;99.90;;;;;;5153385;27;20377;-58
2022/05/14 08:20:18;;;;;;;;;;;16.50;99.90;;;;;;5142123;27;19970;-58
2022/05/14 08:25:29;;;;;;;;;;;16.50;99.90;;;;;;5133289;28;19927;-58
2022/05/14 08:27:54;;;;;;;;;;;16.60;99.90;;;;;;5153280;27;19974;-58
2022/05/14 08:30:22;;;;;;;;;;;16.70;99.90;;;;;;5139679;27;19966;-58
2022/05/14 08:32:48;;;;;;;;;;;16.70;99.90;;;;;;5118554;28;20416;-58
2022/05/14 08:35:14;;;;;;;;;;;16.80;99.90;;;;;;5133878;28;20018;-58
2022/05/14 08:37:40;;;;;;;;;;;16.80;99.90;;;;;;5133337;28;19947;-58
2022/05/14 08:40:08;;;;;;;;;;;16.90;99.90;;;;;;5142248;27;20006;-58
2022/05/14 08:42:34;;;;;;;;;;;17.00;99.90;;;;;;5152820;27;19930;-58
2022/05/14 08:45:00;;;;;;;;;;;17.00;99.90;;;;;;5141355;27;19978;-58
2022/05/14 08:47:28;;;;;;;;;;;17.00;99.90;;;;;;5152702;27;19934;-58
2022/05/14 08:49:54;;;;;;;;;;;17.10;99.90;;;;;;5129649;27;20385;-58
2022/05/14 08:52:21;;;;;;;;;;;17.10;99.90;;;;;;5135623;27;19923;-58
2022/05/14 08:54:48;;;;;;;;;;;17.30;99.90;;;;;;5135217;27;19919;-58
2022/05/14 08:57:14;;;;;;;;;;;17.40;99.90;;;;;;5144800;27;19923;-58
2022/05/14 08:59:39;;;;;;;;;;;17.60;99.90;;;;;;5152229;27;19946;-58
2022/05/14 09:02:07;;;;;;;;;;;17.70;99.90;;;;;;5134762;27;19970;-58
2022/05/14 09:04:33;;;;;;;;;;;17.80;99.90;;;;;;5154322;27;19927;-58
2022/05/14 09:06:59;;;;;;;;;;;17.70;99.90;;;;;;5152792;27;20266;-58
2022/05/14 09:09:24;;;;;;;;;;;17.60;99.90;;;;;;5154319;27;20370;-58
2022/05/14 09:11:54;;;;;;;;;;;17.50;99.90;;;;;;5156712;27;20377;-58
2022/05/14 09:14:28;;;;;;;;;;;17.50;99.90;;;;;;5156961;27;19923;-58
2022/05/14 09:17:00;;;;;;;;;;;17.40;99.90;;;;;;5144805;27;19930;-58
2022/05/14 09:19:31;;;;;;;;;;;17.30;99.90;;;;;;5137194;27;20395;-58
2022/05/14 09:21:57;;;;;;;;;;;17.30;99.90;;;;;;5135996;27;19923;-58
2022/05/14 09:24:25;;;;;;;;;;;17.60;99.90;;;;;;5150284;27;19946;-58
2022/05/14 09:26:54;;;;;;;;;;;17.70;99.90;;;;;;5157708;27;19923;-58
2022/05/14 09:29:28;;;;;;;;;;;17.70;99.90;;;;;;5137883;27;19923;-58
2022/05/14 09:31:55;;;;;;;;;;;17.60;99.90;;;;;;5157453;27;20334;-58
2022/05/14 09:34:21;;;;;;;;;;;17.30;99.90;;;;;;5156880;27;20403;-58
2022/05/14 09:36:48;;;;;;;;;;;17.20;99.90;;;;;;5156643;27;19948;-58
2022/05/14 09:39:16;;;;;;;;;;;17.40;99.90;;;;;;5157661;27;19923;-58
2022/05/14 09:41:44;;;;;;;;;;;17.70;99.90;;;;;;5137681;27;20280;-58
2022/05/14 09:44:19;;;;;;;;;;;17.90;99.90;;;;;;5165030;27;19923;-58
2022/05/14 09:46:45;;;;;;;;;;;17.80;99.90;;;;;;5157535;27;19943;-58
2022/05/14 09:49:18;;;;;;;;;;;17.90;99.90;;;;;;5157479;27;19923;-58
2022/05/14 09:51:44;;;;;;;;;;;18.10;99.90;;;;;;5155685;27;19919;-58
2022/05/14 09:54:21;;;;;;;;;;;18.50;99.90;;;;;;5157425;27;20379;-58
2022/05/14 09:57:02;;;;;;;;;;;18.70;99.90;;;;;;5156495;27;19923;-58
2022/05/14 09:59:35;;;;;;;;;;;18.80;98.50;;;;;;5155432;27;20384;-58
2022/05/14 10:02:06;;;;;;;;;;;18.70;98.40;;;;;;5156940;27;20292;-58
2022/05/14 10:04:42;;;;;;;;;;;18.50;98.90;;;;;;5156448;27;19938;-58
2022/05/14 10:07:17;;;;;;;;;;;18.30;98.70;;;;;;5156280;27;20537;-58
2022/05/14 10:10:01;;;;;;;;;;;18.20;99.90;;;;;;5143373;27;19923;-58
2022/05/14 10:12:31;;;;;;;;;;;18.40;99.30;;;;;;5135241;27;20107;-58
2022/05/14 10:15:00;;;;;;;;;;;18.60;99.10;;;;;;5136055;27;19968;-58
2022/05/14 10:17:35;;;;;;;;;;;18.70;99.40;;;;;;5132221;27;19966;-58
2022/05/14 10:20:05;;;;;;;;;;;18.80;97.40;;;;;;5155308;27;19929;-58
2022/05/14 10:28:16;;;;;;;;;;;;;;;;;;5147164;27;19923;-58
2022/05/14 10:30:44;;;;;;;;;;;20.20;93.50;;;;;;5137657;27;20335;-59
2022/05/14 10:33:13;;;;;;;;;;;20.30;93.50;;;;;;5155983;27;19923;-58
2022/05/14 10:35:54;;;;;;;;;;;20.30;93.80;;;;;;5155139;27;19923;-58
2022/05/14 10:38:24;;;;;;;;;;;20.50;93.10;;;;;;5153904;27;19923;-58
2022/05/14 10:40:53;;;;;;;;;;;20.50;92.60;;;;;;5155613;27;19923;-58
2022/05/14 10:43:19;;;;;;;;;;;20.40;93.00;;;;;;5155802;27;19927;-58
2022/05/14 10:45:46;;;;;;;;;;;20.70;93.60;;;;;;5137492;27;19930;-58
2022/05/14 10:48:18;;;;;;;;;;;20.60;91.80;;;;;;5155915;27;20318;-58
2022/05/14 10:50:44;;;;;;;;;;;20.10;90.40;;;;;;5156018;27;20010;-58
2022/05/14 10:53:10;;;;;;;;;;;19.70;92.20;;;;;;5154941;27;20002;-58
2022/05/14 10:55:45;;;;;;;;;;;19.40;94.80;;;;;;5155961;27;19931;-58
2022/05/14 10:58:19;;;;;;;;;;;19.80;96.30;;;;;;5137198;27;19923;-58
2022/05/14 11:00:48;;;;;;;;;;;20.30;93.20;;;;;;5119183;27;19923;-58
2022/05/14 11:03:21;;;;;;;;;;;20.50;92.90;;;;;;5153028;27;19967;-58
2022/05/14 11:06:21;;;;;;;;;;;20.60;91.10;;;;;;5141578;27;19923;-58
2022/05/14 11:08:47;;;;;;;;;;;20.20;89.60;;;;;;5154300;27;19924;-59
2022/05/14 11:11:17;;;;;;;;;;;19.40;91.50;;;;;;5152482;27;19927;-58
2022/05/14 11:13:56;;;;;;;;;;;19.10;91.40;;;;;;5155456;27;19935;-58
2022/05/14 11:16:22;;;;;;;;;;;19.10;92.90;;;;;;5151713;27;20503;-58
2022/05/14 11:18:51;;;;;;;;;;;19.80;93.30;;;;;;5134901;27;19927;-58
2022/05/14 11:21:22;;;;;;;;;;;20.70;90.00;;;;;;5153602;27;21320;-59
2022/05/14 11:23:52;;;;;;;;;;;20.80;82.40;;;;;;5155241;27;20403;-59
2022/05/14 11:26:18;;;;;;;;;;;20.80;87.10;;;;;;5154970;27;20365;-58
2022/05/14 11:28:53;;;;;;;;;;;20.70;83.20;;;;;;5153252;27;19930;-58
2022/05/14 11:31:21;;;;;;;;;;;20.60;85.20;;;;;;5155359;27;19930;-58
2022/05/14 11:33:47;;;;;;;;;;;;;;;;;;5154739;27;19926;-58
2022/05/14 11:36:12;;;;;;;;;;;21.90;80.50;;;;;;5153887;27;19995;-59
2022/05/14 11:38:40;;;;;;;;;;;22.10;73.40;;;;;;5152759;27;19923;-58
2022/05/14 11:41:08;;;;;;;;;;;22.20;71.70;;;;;;5154476;27;20088;-59
2022/05/14 11:43:41;;;;;;;;;;;22.00;71.80;;;;;;5154403;27;20281;-58
2022/05/14 11:46:16;;;;;;;;;;;22.00;75.90;;;;;;5149140;27;19926;-59
2022/05/14 11:48:48;;;;;;;;;;;22.30;74.90;;;;;;5150964;27;20412;-59
2022/05/14 11:51:18;;;;;;;;;;;22.40;73.20;;;;;;5135188;27;20412;-59
2022/05/14 11:53:46;;;;;;;;;;;22.60;70.90;;;;;;5151034;27;19976;-59
2022/05/14 11:56:15;;;;;;;;;;;23.30;74.40;;;;;;5153598;27;19930;-59
2022/05/14 11:58:45;;;;;;;;;;;23.90;66.60;;;;;;5154441;27;19938;-59
2022/05/14 12:01:16;;;;;;;;;;;23.80;62.70;;;;;;5154318;27;19923;-58
2022/05/14 12:03:44;;;;;;;;;;;23.20;63.90;;;;;;5150277;27;20392;-59
2022/05/14 12:06:18;;;;;;;;;;;22.30;70.00;;;;;;5155189;27;19923;-59
2022/05/14 12:08:49;;;;;;;;;;;21.80;70.20;;;;;;5154921;27;19935;-59
2022/05/14 12:11:15;;;;;;;;;;;21.90;70.00;;;;;;5153421;27;19927;-59
2022/05/14 12:13:48;;;;;;;;;;;22.00;74.80;;;;;;5155014;27;20391;-59
2022/05/14 12:16:14;;;;;;;;;;;21.90;73.50;;;;;;5129460;28;19923;-59
2022/05/14 12:18:40;;;;;;;;;;;21.30;74.70;;;;;;5147035;27;19929;-59
2022/05/14 12:21:06;;;;;;;;;;;21.10;76.00;;;;;;5106741;28;19928;-58
2022/05/14 12:23:34;;;;;;;;;;;21.30;80.20;;;;;;5143328;27;19924;-59
2022/05/14 12:26:00;;;;;;;;;;;21.80;78.20;;;;;;5136795;27;19968;-59
2022/05/14 12:28:28;;;;;;;;;;;22.70;80.00;;;;;;5135261;27;19927;-59
2022/05/14 12:33:39;;;;;;;;;;;22.00;75.40;;;;;;5152114;27;20013;-59
2022/05/14 12:36:06;;;;;;;;;;;22.10;75.30;;;;;;5152988;27;20421;-59
2022/05/14 12:38:34;;;;;;;;;;;21.90;75.70;;;;;;5133764;27;19976;-62
2022/05/14 12:41:00;;;;;;;;;;;21.90;76.60;;;;;;5153673;27;20009;-59
2022/05/14 12:43:26;;;;;;;;;;;22.00;76.90;;;;;;5154311;27;19985;-59
2022/05/14 12:46:06;;;;;;;;;;;22.20;78.50;;;;;;5156248;27;19927;-59
2022/05/14 12:48:40;;;;;;;;;;;22.40;74.40;;;;;;5156857;27;19941;-59
2022/05/14 12:51:07;;;;;;;;;;;22.30;74.40;;;;;;5156114;27;20013;-60
2022/05/14 12:53:35;;;;;;;;;;;22.30;76.20;;;;;;5157125;27;19973;-61
2022/05/14 12:56:01;;;;;;;;;;;21.90;76.70;;;;;;5150532;27;19922;-59
2022/05/14 12:58:27;;;;;;;;;;;21.30;76.30;;;;;;5155023;27;20395;-59
2022/05/14 13:00:52;;;;;;;;;;;21.20;81.60;;;;;;5156777;27;20002;-59
2022/05/14 13:03:31;;;;;;;;;;;21.50;80.10;;;;;;5156391;27;19930;-59
2022/05/14 13:05:59;;;;;;;;;;;21.40;78.80;;;;;;5155236;27;19927;-60
2022/05/14 13:08:26;;;;;;;;;;;21.10;98.70;;;;;;5156830;27;19923;-59
2022/05/14 13:10:53;;;;;;;;;;;20.60;77.60;;;;;;5153083;27;19931;-60
2022/05/14 13:13:27;;;;;;;;;;;20.50;79.20;;;;;;5126856;27;19969;-59
2022/05/14 13:15:53;;;;;;;;;;;20.50;81.30;;;;;;5157491;27;19992;-60
2022/05/14 13:18:28;;;;;;;;;;;20.60;80.80;;;;;;5157694;27;20384;-60
2022/05/14 13:21:01;;;;;;;;;;;20.50;83.10;;;;;;5156704;27;19923;-59
2022/05/14 13:23:27;;;;;;;;;;;20.40;84.70;;;;;;5156747;27;20440;-59
2022/05/14 13:26:00;;;;;;;;;;;20.70;84.90;;;;;;5154878;27;19923;-59
2022/05/14 13:28:28;;;;;;;;;;;21.10;83.80;;;;;;5156179;27;19927;-59
2022/05/14 13:30:54;;;;;;;;;;;21.20;80.00;;;;;;5153624;27;19930;-60
2022/05/14 13:33:26;;;;;;;;;;;21.10;81.30;;;;;;5136723;27;19923;-60
2022/05/14 13:38:39;;;;;;;;;;;21.20;79.30;;;;;;5118463;27;19923;-60
2022/05/14 13:41:21;;;;;;;;;;;20.80;79.90;;;;;;5151679;27;19950;-60
2022/05/14 13:43:49;;;;;;;;;;;20.50;82.00;;;;;;5156803;27;20017;-59
2022/05/14 13:46:20;;;;;;;;;;;20.20;81.80;;;;;;5157328;27;19930;-59
2022/05/14 13:48:47;;;;;;;;;;;20.10;83.80;;;;;;5155840;27;20522;-59
2022/05/14 13:51:31;;;;;;;;;;;20.40;86.80;;;;;;5139074;27;19929;-59
2022/05/14 13:54:08;;;;;;;;;;;20.80;84.30;;;;;;5148302;27;19931;-60
2022/05/14 13:56:34;;;;;;;;;;;20.90;81.10;;;;;;5155883;27;20318;-60
2022/05/14 13:59:01;;;;;;;;;;;21.00;84.40;;;;;;5156678;27;20223;-60
2022/05/14 14:01:36;;;;;;;;;;;21.20;82.60;;;;;;5156975;27;19923;-60
2022/05/14 14:04:06;;;;;;;;;;;21.30;79.90;;;;;;5156579;27;19924;-59
2022/05/14 14:06:33;;;;;;;;;;;21.50;83.80;;;;;;5138133;27;19923;-60
2022/05/14 14:08:59;;;;;;;;;;;21.90;82.10;;;;;;5157029;27;19923;-60
2022/05/14 14:11:25;;;;;;;;;;;22.00;76.10;;;;;;5156437;27;20070;-60
2022/05/14 14:13:51;;;;;;;;;;;21.40;76.90;;;;;;5138436;27;19923;-59
2022/05/14 14:16:17;;;;;;;;;;;21.10;78.40;;;;;;5149101;27;20011;-59
2022/05/14 14:18:42;;;;;;;;;;;20.80;78.90;;;;;;5149403;27;19923;-59
2022/05/14 14:21:11;;;;;;;;;;;20.90;85.40;;;;;;5156149;27;19926;-59
2022/05/14 14:23:38;;;;;;;;;;;21.50;78.70;;;;;;5154951;27;19926;-60
2022/05/14 14:26:04;;;;;;;;;;;21.90;75.70;;;;;;5133191;27;19923;-59
2022/05/14 14:28:30;;;;;;;;;;;22.10;78.10;;;;;;5147393;27;19979;-60
2022/05/14 14:30:56;;;;;;;;;;;21.90;75.00;;;;;;5155656;27;20017;-60
2022/05/14 14:33:22;;;;;;;;;;;21.60;77.70;;;;;;5148237;27;19919;-60
2022/05/14 14:35:48;;;;;;;;;;;21.70;78.40;;;;;;5135827;27;20487;-60
2022/05/14 14:38:14;;;;;;;;;;;21.90;75.60;;;;;;5135035;27;20000;-60
2022/05/14 14:40:40;;;;;;;;;;;22.20;74.80;;;;;;5135319;27;19931;-60
2022/05/14 14:43:05;;;;;;;;;;;21.90;72.50;;;;;;5151251;27;20013;-60
2022/05/14 14:45:33;;;;;;;;;;;21.20;75.90;;;;;;5136907;27;19923;-60